Time;durP1;ratioP1;P1;durP2;ratioP2;P2;SDS_P1;SDS_P2;PMS_P1;PMS_P2;Temp;Humidity;BMP_temperature;BMP_pressure;BME280_temperature;BME280_humidity;BME280_pressure;Samples;Min_cycle;Max_cycle;Signal;HPM_P1;HPM_P2
2022/05/29 00:00:33;;;;;;;9.87;5.53;;;;;;;;;;5112530;28;20198;-80
2022/05/29 00:03:00;;;;;;;9.30;6.17;;;;;;;;;;5112688;27;20240;-80
2022/05/29 00:05:27;;;;;;;10.57;6.20;;;;;;;;;;5112398;28;20203;-80
2022/05/29 00:07:54;;;;;;;9.73;6.67;;;;;;;;;;5112540;28;20550;-80
2022/05/29 00:10:21;;;;;;;13.23;6.20;;;;;;;;;;5112422;27;20226;-80
2022/05/29 00:12:48;;;;;;;9.77;6.07;;;;;;;;;;5112013;28;20276;-80
2022/05/29 00:15:17;;;;;;;8.33;6.63;;;;;;;;;;5112415;27;20252;-80
2022/05/29 00:17:44;;;;;;;7.77;5.87;;;;;;;;;;5112237;28;20248;-80
2022/05/29 00:20:11;;;;;;;8.30;5.73;;;;;;;;;;5112614;28;20220;-80
2022/05/29 00:22:39;;;;;;;9.17;5.67;;;;;;;;;;5112696;28;20248;-81
2022/05/29 00:25:10;;;;;;;6.13;5.50;;;;;;;;;;5112209;28;20203;-80
2022/05/29 00:27:39;;;;;;;6.70;5.43;;;;;;;;;;5112069;28;20196;-80
2022/05/29 00:30:09;;;;;;;8.07;5.70;;;;;;;;;;5112451;28;20245;-80
2022/05/29 00:32:37;;;;;;;8.73;5.67;;;;;;;;;;5112453;28;20624;-80
2022/05/29 00:35:05;;;;;;;8.23;6.13;;;;;;;;;;5112403;28;20199;-80
2022/05/29 00:37:36;;;;;;;9.00;5.60;;;;;;;;;;5112068;28;20229;-79
2022/05/29 00:40:14;;;;;;;10.77;6.87;;;;;;;;;;5112145;28;20183;-80
2022/05/29 00:42:41;;;;;;;9.40;6.97;;;;;;;;;;5112258;28;20184;-80
2022/05/29 00:45:12;;;;;;;6.80;5.60;;;;;;;;;;5112061;28;20229;-80
2022/05/29 00:47:40;;;;;;;10.37;5.90;;;;;;;;;;5112358;28;20794;-80
2022/05/29 00:50:08;;;;;;;9.53;5.97;;;;;;;;;;5113602;28;20264;-80
2022/05/29 00:52:35;;;;;;;7.40;5.17;;;;;;;;;;5115859;28;20272;-80
2022/05/29 00:55:05;;;;;;;9.40;5.57;;;;;;;;;;5116024;28;20664;-80
2022/05/29 00:57:35;;;;;;;10.43;5.70;;;;;;;;;;5115953;28;20183;-80
2022/05/29 01:00:07;;;;;;;8.20;5.23;;;;;;;;;;5116323;28;20199;-80
2022/05/29 01:02:34;;;;;;;9.57;5.80;;;;;;;;;;5116279;27;20568;-80
2022/05/29 01:05:03;;;;;;;7.20;5.93;;;;;;;;;;5115884;28;20203;-80
2022/05/29 01:07:30;;;;;;;8.57;5.97;;;;;;;;;;5115455;28;20240;-80
2022/05/29 01:09:59;;;;;;;9.53;6.10;;;;;;;;;;5116091;28;20614;-80
2022/05/29 01:12:37;;;;;;;7.93;5.60;;;;;;;;;;5115536;28;20295;-80
2022/05/29 01:15:11;;;;;;;10.57;5.73;;;;;;;;;;5116104;28;20220;-80
2022/05/29 01:17:45;;;;;;;9.30;5.60;;;;;;;;;;5115794;28;20191;-80
2022/05/29 01:20:29;;;;;;;11.03;5.40;;;;;;;;;;5115993;28;20266;-80
2022/05/29 01:23:22;;;;;;;10.40;5.30;;;;;;;;;;5115407;28;20183;-80
2022/05/29 01:26:28;;;;;;;8.33;5.97;;;;;;;;;;5113162;28;20732;-80
2022/05/29 01:28:57;;;;;;;5.73;5.10;;;;;;;;;;5081763;28;20207;-80
2022/05/29 01:31:34;;;;;;;8.43;5.63;;;;;;;;;;5115679;27;20276;-80
2022/05/29 01:34:08;;;;;;;10.87;6.07;;;;;;;;;;5115287;28;20244;-80
2022/05/29 01:36:40;;;;;;;7.90;5.50;;;;;;;;;;5115552;28;20269;-80
2022/05/29 01:39:10;;;;;;;7.10;4.40;;;;;;;;;;5115426;27;20625;-80
2022/05/29 01:41:39;;;;;;;9.07;5.57;;;;;;;;;;5115771;28;20191;-80
2022/05/29 01:44:11;;;;;;;10.20;6.07;;;;;;;;;;5114762;28;20209;-80
2022/05/29 01:46:38;;;;;;;8.03;6.07;;;;;;;;;;5115509;28;20236;-81
2022/05/29 01:49:14;;;;;;;9.43;5.93;;;;;;;;;;5115125;28;20201;-79
2022/05/29 01:51:45;;;;;;;9.03;5.17;;;;;;;;;;5114935;28;20207;-80
2022/05/29 01:54:15;;;;;;;10.20;6.03;;;;;;;;;;5115351;28;20247;-80
2022/05/29 01:56:45;;;;;;;10.90;6.07;;;;;;;;;;5114947;28;20278;-80
2022/05/29 01:59:17;;;;;;;10.23;5.60;;;;;;;;;;5114568;28;20297;-80
2022/05/29 02:01:47;;;;;;;6.20;5.57;;;;;;;;;;5114047;28;20643;-80
2022/05/29 02:04:19;;;;;;;13.20;5.77;;;;;;;;;;5114627;28;20240;-80
2022/05/29 02:09:35;;;;;;;10.43;5.37;;;;;;;;;;5114616;28;20236;-80
2022/05/29 02:12:02;;;;;;;9.87;5.70;;;;;;;;;;5114369;28;20267;-80
2022/05/29 02:14:33;;;;;;;7.53;5.70;;;;;;;;;;5114431;28;20252;-80
2022/05/29 02:17:04;;;;;;;8.70;5.63;;;;;;;;;;5114954;28;20187;-80
2022/05/29 02:19:34;;;;;;;9.20;5.70;;;;;;;;;;5114605;28;20242;-79
2022/05/29 02:22:04;;;;;;;7.43;4.90;;;;;;;;;;5114580;28;20216;-80
2022/05/29 02:24:34;;;;;;;7.57;5.13;;;;;;;;;;5114198;27;20202;-80
2022/05/29 02:27:06;;;;;;;10.40;5.40;;;;;;;;;;5114435;28;20651;-79
2022/05/29 02:29:35;;;;;;;9.47;5.17;;;;;;;;;;5114201;28;20289;-79
2022/05/29 02:32:14;;;;;;;11.90;5.93;;;;;;;;;;5116213;27;20737;-79
2022/05/29 02:34:47;;;;;;;8.40;5.60;;;;;;;;;;5130330;27;20214;-79
2022/05/29 02:37:18;;;;;;;9.90;5.93;;;;;;;;;;5125758;27;20201;-79
2022/05/29 02:39:55;;;;;;;11.23;5.43;;;;;;;;;;5134477;27;20239;-80
2022/05/29 02:42:28;;;;;;;14.67;5.37;;;;;;;;;;5131707;27;20192;-79
2022/05/29 02:45:05;;;;;;;8.67;5.70;;;;;;;;;;5127903;27;20654;-79
2022/05/29 02:47:39;;;;;;;7.90;5.90;;;;;;;;;;5130085;27;20196;-79
2022/05/29 02:50:23;;;;;;;12.70;5.80;;;;;;;;;;5113853;28;20195;-79
2022/05/29 02:52:52;;;;;;;9.17;5.43;;;;;;;;;;5113631;28;20258;-79
2022/05/29 02:55:20;;;;;;;8.37;5.13;;;;;;;;;;5118558;27;20203;-79
2022/05/29 02:57:47;;;;;;;6.63;4.80;;;;;;;;;;5131248;27;20209;-79
2022/05/29 03:00:17;;;;;;;6.67;4.70;;;;;;;;;;5132710;27;20258;-79
2022/05/29 03:02:57;;;;;;;9.60;4.93;;;;;;;;;;5113982;27;20246;-79
2022/05/29 03:05:28;;;;;;;10.53;5.47;;;;;;;;;;5119981;27;20236;-79
2022/05/29 03:08:04;;;;;;;6.57;4.87;;;;;;;;;;5113235;28;20188;-79
2022/05/29 03:10:34;;;;;;;7.13;5.77;;;;;;;;;;5113856;28;20634;-79
2022/05/29 03:13:08;;;;;;;6.80;5.40;;;;;;;;;;5113739;28;20264;-79
2022/05/29 03:15:45;;;;;;;7.87;4.53;;;;;;;;;;5122689;27;20225;-80
2022/05/29 03:18:21;;;;;;;8.43;4.80;;;;;;;;;;5112750;28;20196;-80
2022/05/29 03:20:56;;;;;;;9.87;4.97;;;;;;;;;;5126953;27;20232;-80
2022/05/29 03:23:30;;;;;;;11.50;5.00;;;;;;;;;;5133629;27;20231;-80
2022/05/29 03:26:00;;;;;;;9.37;5.47;;;;;;;;;;5133598;27;20184;-80
2022/05/29 03:28:31;;;;;;;8.97;5.00;;;;;;;;;;5132708;27;20235;-80
2022/05/29 03:31:01;;;;;;;8.73;4.67;;;;;;;;;;5128493;27;20747;-80
2022/05/29 03:33:28;;;;;;;9.53;5.53;;;;;;;;;;5125457;27;20305;-80
2022/05/29 03:36:08;;;;;;;8.90;4.87;;;;;;;;;;5121172;27;20206;-81
2022/05/29 03:38:35;;;;;;;8.30;4.63;;;;;;;;;;5112751;28;20190;-79
2022/05/29 03:41:09;;;;;;;7.07;4.43;;;;;;;;;;5126100;27;20210;-80
2022/05/29 03:43:36;;;;;;;8.30;5.00;;;;;;;;;;5133306;27;20243;-80
2022/05/29 03:46:04;;;;;;;9.77;5.90;;;;;;;;;;5133577;27;20255;-80
2022/05/29 03:48:32;;;;;;;8.17;4.70;;;;;;;;;;5132995;27;20246;-80
2022/05/29 03:51:04;;;;;;;6.00;5.23;;;;;;;;;;5132977;27;20592;-81
2022/05/29 03:53:31;;;;;;;8.47;6.03;;;;;;;;;;5133047;27;20261;-80
2022/05/29 03:55:58;;;;;;;13.67;5.43;;;;;;;;;;5133165;27;20198;-81
2022/05/29 03:58:25;;;;;;;8.33;5.33;;;;;;;;;;5113787;27;20284;-80
2022/05/29 04:00:53;;;;;;;8.27;5.43;;;;;;;;;;5112539;28;20203;-80
2022/05/29 04:03:21;;;;;;;9.77;5.97;;;;;;;;;;5112417;28;20217;-80
2022/05/29 04:05:48;;;;;;;7.00;5.50;;;;;;;;;;5112717;28;20195;-80
2022/05/29 04:13:52;;;;;;;8.43;5.43;;;;;;;;;;5087091;28;20224;-82
2022/05/29 04:16:19;;;;;;;13.40;6.37;;;;;;;;;;5111828;28;20203;-83
2022/05/29 04:18:48;;;;;;;9.37;5.50;;;;;;;;;;5112183;28;20232;-82
2022/05/29 04:21:15;;;;;;;10.97;5.53;;;;;;;;;;5112681;28;20287;-82
2022/05/29 04:23:42;;;;;;;10.97;5.17;;;;;;;;;;5111783;28;20211;-82
2022/05/29 04:26:09;;;;;;;10.77;5.40;;;;;;;;;;5112357;28;20202;-82
2022/05/29 04:28:36;;;;;;;7.63;4.83;;;;;;;;;;5111827;28;20297;-82
2022/05/29 04:31:03;;;;;;;7.33;4.77;;;;;;;;;;5112646;28;20234;-81
2022/05/29 04:33:29;;;;;;;7.23;4.63;;;;;;;;;;5111641;28;20222;-80
2022/05/29 04:35:58;;;;;;;8.23;4.57;;;;;;;;;;5112586;28;20633;-81
2022/05/29 04:38:27;;;;;;;7.70;4.70;;;;;;;;;;5111670;28;20194;-81
2022/05/29 04:40:55;;;;;;;7.33;5.10;;;;;;;;;;5112511;28;20202;-81
2022/05/29 04:43:22;;;;;;;9.27;5.20;;;;;;;;;;5111665;28;20675;-82
2022/05/29 04:45:53;;;;;;;5.67;4.53;;;;;;;;;;5112046;28;20203;-81
2022/05/29 04:48:21;;;;;;;9.60;5.47;;;;;;;;;;5112035;28;20265;-81
2022/05/29 04:50:48;;;;;;;8.00;4.47;;;;;;;;;;5112367;28;20192;-81
2022/05/29 04:53:16;;;;;;;6.97;4.90;;;;;;;;;;5111540;28;20276;-82
2022/05/29 04:55:43;;;;;;;11.43;4.67;;;;;;;;;;5112242;28;20632;-81
2022/05/29 04:58:10;;;;;;;9.67;5.37;;;;;;;;;;5112096;28;20202;-80
2022/05/29 05:00:37;;;;;;;20.47;18.33;;;;;;;;;;5111906;28;20546;-80
2022/05/29 05:03:04;;;;;;;44.67;40.23;;;;;;;;;;5111526;28;20189;-80
2022/05/29 05:05:31;;;;;;;31.93;28.73;;;;;;;;;;5112224;28;20188;-80
2022/05/29 05:07:58;;;;;;;10.33;6.20;;;;;;;;;;5113331;28;20192;-81
2022/05/29 05:10:27;;;;;;;9.47;5.40;;;;;;;;;;5112365;28;20210;-80
2022/05/29 05:12:54;;;;;;;7.93;5.70;;;;;;;;;;5110033;28;20222;-81
2022/05/29 05:15:21;;;;;;;10.40;4.97;;;;;;;;;;5114889;28;20694;-82
2022/05/29 05:17:49;;;;;;;9.83;4.03;;;;;;;;;;5110857;28;20210;-81
2022/05/29 05:20:16;;;;;;;9.63;4.30;;;;;;;;;;5113718;28;20198;-82
2022/05/29 05:22:43;;;;;;;8.30;4.53;;;;;;;;;;5109824;28;20224;-82
2022/05/29 05:25:11;;;;;;;7.33;4.60;;;;;;;;;;5113078;28;20191;-81
2022/05/29 05:27:40;;;;;;;6.90;4.00;;;;;;;;;;5111312;28;20203;-81
2022/05/29 05:30:08;;;;;;;11.10;4.27;;;;;;;;;;5111763;28;20200;-80
2022/05/29 05:32:35;;;;;;;5.60;4.27;;;;;;;;;;5115256;28;20274;-80
2022/05/29 05:35:05;;;;;;;20.27;16.27;;;;;;;;;;5114387;27;20237;-81
2022/05/29 05:37:34;;;;;;;10.23;5.50;;;;;;;;;;5114619;27;20191;-80
2022/05/29 05:40:02;;;;;;;7.30;4.77;;;;;;;;;;5135733;27;20240;-81
2022/05/29 05:42:29;;;;;;;6.33;4.23;;;;;;;;;;5135619;27;20610;-81
2022/05/29 05:44:57;;;;;;;6.73;4.30;;;;;;;;;;5127491;27;20249;-82
2022/05/29 05:47:24;;;;;;;7.03;3.53;;;;;;;;;;5117058;27;20260;-81
2022/05/29 05:49:52;;;;;;;5.30;4.10;;;;;;;;;;5120431;27;20259;-82
2022/05/29 05:52:19;;;;;;;10.73;4.67;;;;;;;;;;5119096;27;20238;-81
2022/05/29 05:54:47;;;;;;;8.53;5.17;;;;;;;;;;5114985;28;20199;-80
2022/05/29 05:57:14;;;;;;;6.60;4.60;;;;;;;;;;5115497;28;20242;-81
2022/05/29 05:59:41;;;;;;;8.97;4.80;;;;;;;;;;5115201;28;20195;-80
2022/05/29 06:02:10;;;;;;;6.67;4.70;;;;;;;;;;5115195;28;20203;-81
2022/05/29 06:04:38;;;;;;;12.13;4.53;;;;;;;;;;5114487;28;20187;-81
2022/05/29 06:07:05;;;;;;;8.47;4.70;;;;;;;;;;5113526;27;20256;-81
2022/05/29 06:09:32;;;;;;;7.60;4.57;;;;;;;;;;5129758;27;20230;-81
2022/05/29 06:11:59;;;;;;;8.83;4.23;;;;;;;;;;5124663;27;20230;-81
2022/05/29 06:14:26;;;;;;;11.13;4.80;;;;;;;;;;5123257;27;20203;-81
2022/05/29 06:16:53;;;;;;;6.63;4.27;;;;;;;;;;5127143;27;20675;-80
2022/05/29 06:19:22;;;;;;;5.00;4.47;;;;;;;;;;5122682;27;20204;-81
2022/05/29 06:21:49;;;;;;;7.33;4.13;;;;;;;;;;5113242;28;20248;-80
2022/05/29 06:24:16;;;;;;;9.70;5.43;;;;;;;;;;5127394;27;20204;-81
2022/05/29 06:26:43;;;;;;;12.03;5.03;;;;;;;;;;5133425;27;20199;-80
2022/05/29 06:29:11;;;;;;;7.07;4.73;;;;;;;;;;5133781;27;20233;-81
2022/05/29 06:31:39;;;;;;;7.27;4.30;;;;;;;;;;5116798;27;20751;-81
2022/05/29 06:34:06;;;;;;;6.37;4.30;;;;;;;;;;5128411;27;20223;-80
2022/05/29 06:36:34;;;;;;;6.47;4.23;;;;;;;;;;5118435;27;20207;-81
2022/05/29 06:39:01;;;;;;;8.37;4.83;;;;;;;;;;5112951;28;20195;-80
2022/05/29 06:41:30;;;;;;;6.30;5.40;;;;;;;;;;5112978;28;20199;-80
2022/05/29 06:43:57;;;;;;;9.90;5.50;;;;;;;;;;5113046;28;20214;-80
2022/05/29 06:46:24;;;;;;;10.20;6.30;;;;;;;;;;5113631;27;20247;-80
2022/05/29 06:48:51;;;;;;;8.20;4.70;;;;;;;;;;5112671;28;20195;-81
2022/05/29 06:51:21;;;;;;;7.57;6.03;;;;;;;;;;5112655;28;20199;-80
2022/05/29 06:53:50;;;;;;;11.70;5.20;;;;;;;;;;5112770;28;20242;-80
2022/05/29 06:56:18;;;;;;;9.97;5.37;;;;;;;;;;5112566;28;20195;-80
2022/05/29 06:58:46;;;;;;;9.17;5.47;;;;;;;;;;5112823;28;20635;-80
2022/05/29 07:07:02;;;;;;;13.37;6.67;;;;;;;;;;5091697;28;20675;-80
2022/05/29 07:09:32;;;;;;;10.67;6.27;;;;;;;;;;5091954;28;20279;-80
2022/05/29 07:12:04;;;;;;;12.43;6.50;;;;;;;;;;5091856;28;20716;-81
2022/05/29 07:14:32;;;;;;;11.50;6.57;;;;;;;;;;5091850;28;20201;-81
2022/05/29 07:16:59;;;;;;;8.90;5.90;;;;;;;;;;5091724;28;20249;-80
2022/05/29 07:19:28;;;;;;;10.93;6.10;;;;;;;;;;5091583;28;20269;-80
2022/05/29 07:21:57;;;;;;;11.63;7.27;;;;;;;;;;5092192;28;20206;-80
2022/05/29 07:24:25;;;;;;;6.07;5.47;;;;;;;;;;5091957;28;20207;-80
2022/05/29 07:26:54;;;;;;;6.47;5.83;;;;;;;;;;5091780;28;20228;-80
2022/05/29 07:29:21;;;;;;;11.40;6.30;;;;;;;;;;5091289;28;20716;-80
2022/05/29 07:31:49;;;;;;;9.73;6.43;;;;;;;;;;5091646;28;20200;-80
2022/05/29 07:34:16;;;;;;;10.20;5.97;;;;;;;;;;5091639;28;20216;-79
2022/05/29 07:36:43;;;;;;;9.93;6.47;;;;;;;;;;5091282;28;20200;-80
2022/05/29 07:39:11;;;;;;;8.23;6.57;;;;;;;;;;5091341;28;20192;-80
2022/05/29 07:44:24;;;;;;;12.43;6.50;;;;;;;;;;5091011;28;20180;-80
2022/05/29 07:46:51;;;;;;;8.40;5.53;;;;;;;;;;5091521;28;20746;-80
2022/05/29 07:49:18;;;;;;;16.80;5.60;;;;;;;;;;5091017;28;20200;-80
2022/05/29 07:51:45;;;;;;;11.43;6.13;;;;;;;;;;5091338;28;20204;-80
2022/05/29 07:54:12;;;;;;;7.07;5.00;;;;;;;;;;5091333;28;20708;-80
2022/05/29 07:56:39;;;;;;;7.87;4.60;;;;;;;;;;5091100;28;20253;-80
2022/05/29 07:59:06;;;;;;;8.60;5.53;;;;;;;;;;5091020;28;20226;-80
2022/05/29 08:01:35;;;;;;;9.70;5.13;;;;;;;;;;5091821;28;20255;-80
2022/05/29 08:04:02;;;;;;;7.30;4.93;;;;;;;;;;5090616;28;20257;-80
2022/05/29 08:06:29;;;;;;;6.50;4.17;;;;;;;;;;5092227;28;20759;-80
2022/05/29 08:08:56;;;;;;;5.47;4.90;;;;;;;;;;5092274;28;20200;-80
2022/05/29 08:11:23;;;;;;;7.40;4.40;;;;;;;;;;5092373;28;20626;-81
2022/05/29 08:13:50;;;;;;;10.50;4.90;;;;;;;;;;5051480;28;20225;-81
2022/05/29 08:16:18;;;;;;;9.27;5.07;;;;;;;;;;5052185;28;20205;-81
2022/05/29 08:18:47;;;;;;;10.47;5.03;;;;;;;;;;5052103;28;20205;-80
2022/05/29 08:21:15;;;;;;;7.97;4.93;;;;;;;;;;5051833;28;20293;-80
2022/05/29 08:30:37;;;;;;;10.70;4.70;;;;;;;;;;5052030;28;20194;-80
2022/05/29 08:31:58;;;;;;;11.10;5.63;;;;;;;;;;5052133;28;20189;-82
2022/05/29 08:34:27;;;;;;;6.93;5.37;;;;;;;;;;5058348;28;20228;-81
2022/05/29 08:36:55;;;;;;;7.93;4.37;;;;;;;;;;5082806;28;20208;-81
2022/05/29 08:39:22;;;;;;;6.20;5.10;;;;;;;;;;5081648;28;20205;-81
2022/05/29 08:41:52;;;;;;;7.70;4.87;;;;;;;;;;5071504;28;20209;-80
2022/05/29 08:44:23;;;;;;;10.53;4.93;;;;;;;;;;5079634;28;20558;-81
2022/05/29 08:46:52;;;;;;;8.27;4.87;;;;;;;;;;5071626;28;20618;-81
2022/05/29 08:49:21;;;;;;;8.93;4.73;;;;;;;;;;5071430;28;20681;-82
2022/05/29 08:52:02;;;;;;;8.63;5.10;;;;;;;;;;5072134;28;20197;-81
2022/05/29 08:54:47;;;;;;;7.73;5.27;;;;;;;;;;5071231;28;20234;-81
2022/05/29 08:57:33;;;;;;;7.63;4.87;;;;;;;;;;5071391;28;20185;-81
2022/05/29 09:00:03;;;;;;;7.30;4.77;;;;;;;;;;5070020;28;20233;-81
2022/05/29 09:02:40;;;;;;;6.53;4.10;;;;;;;;;;5071336;28;20201;-81
2022/05/29 09:05:10;;;;;;;8.13;4.27;;;;;;;;;;5071832;28;20193;-81
2022/05/29 09:07:40;;;;;;;7.40;4.30;;;;;;;;;;5071220;28;20205;-81
2022/05/29 09:10:13;;;;;;;8.00;4.73;;;;;;;;;;5072008;28;20246;-81
2022/05/29 09:12:44;;;;;;;7.43;4.57;;;;;;;;;;5094413;28;20239;-81
2022/05/29 09:15:14;;;;;;;6.77;3.87;;;;;;;;;;5116157;28;20267;-81
2022/05/29 09:17:45;;;;;;;7.10;4.53;;;;;;;;;;5115822;28;20236;-82
2022/05/29 09:20:23;;;;;;;6.83;5.07;;;;;;;;;;5116054;28;20569;-81
2022/05/29 09:22:52;;;;;;;9.33;4.07;;;;;;;;;;5115269;28;20237;-81
2022/05/29 09:25:28;;;;;;;10.60;4.37;;;;;;;;;;5115905;28;20292;-81
2022/05/29 09:27:55;;;;;;;9.13;5.43;;;;;;;;;;5115742;28;20236;-81
2022/05/29 09:30:22;;;;;;;6.73;4.30;;;;;;;;;;5115838;28;20255;-81
2022/05/29 09:32:51;;;;;;;8.17;5.00;;;;;;;;;;5115353;28;20200;-81
2022/05/29 09:35:25;;;;;;;9.30;4.80;;;;;;;;;;5115318;28;20256;-81
2022/05/29 09:37:59;;;;;;;7.67;4.20;;;;;;;;;;5115373;28;20187;-81
2022/05/29 09:40:30;;;;;;;8.30;4.27;;;;;;;;;;5115099;28;20283;-81
2022/05/29 09:42:58;;;;;;;8.67;4.53;;;;;;;;;;5115262;28;20180;-81
2022/05/29 09:45:28;;;;;;;9.17;4.20;;;;;;;;;;5122715;27;20195;-81
2022/05/29 09:50:46;;;;;;;10.60;4.80;;;;;;;;;;5115149;28;20554;-81
2022/05/29 09:53:17;;;;;;;9.50;4.20;;;;;;;;;;5124092;27;20241;-81
2022/05/29 09:55:53;;;;;;;6.57;3.70;;;;;;;;;;5118081;27;20195;-81
2022/05/29 09:58:24;;;;;;;7.67;4.73;;;;;;;;;;5135358;27;20194;-81
2022/05/29 10:00:57;;;;;;;8.20;4.33;;;;;;;;;;5129572;27;20202;-80
2022/05/29 10:03:39;;;;;;;7.70;4.30;;;;;;;;;;5134379;27;20201;-81
2022/05/29 10:06:16;;;;;;;10.07;4.37;;;;;;;;;;5129390;27;20195;-81
2022/05/29 10:08:45;;;;;;;8.93;5.13;;;;;;;;;;5121340;27;20747;-81
2022/05/29 10:11:15;;;;;;;6.33;3.93;;;;;;;;;;5121394;27;20199;-81
2022/05/29 10:13:43;;;;;;;5.33;4.70;;;;;;;;;;5117441;27;20274;-81
2022/05/29 10:16:12;;;;;;;8.60;4.80;;;;;;;;;;5124843;27;20202;-81
2022/05/29 10:18:41;;;;;;;13.87;4.90;;;;;;;;;;5122753;27;20198;-81
2022/05/29 10:21:13;;;;;;;10.23;5.00;;;;;;;;;;5129799;27;20253;-80
2022/05/29 10:23:40;;;;;;;12.35;5.22;;;;;;;;;;5113941;28;20617;-81
2022/05/29 10:26:14;;;;;;;8.13;4.45;;;;;;;;;;5128580;27;20743;-81
2022/05/29 10:28:42;;;;;;;8.05;4.00;;;;;;;;;;5123900;27;20297;-81
2022/05/29 10:31:13;;;;;;;6.67;3.53;;;;;;;;;;5114620;28;20196;-81
2022/05/29 10:33:40;;;;;;;9.95;4.65;;;;;;;;;;5122426;27;20210;-81
2022/05/29 10:36:15;;;;;;;11.37;4.13;;;;;;;;;;5135159;27;20199;-81
2022/05/29 10:38:42;;;;;;;7.35;3.80;;;;;;;;;;5134600;27;20194;-81
2022/05/29 10:41:11;;;;;;;7.33;3.90;;;;;;;;;;5131260;27;20256;-81
2022/05/29 10:43:42;;;;;;;7.47;3.77;;;;;;;;;;5134305;27;20219;-81
2022/05/29 10:46:16;;;;;;;8.60;4.43;;;;;;;;;;5131434;27;20194;-81
2022/05/29 10:48:56;;;;;;;5.33;3.13;;;;;;;;;;5134595;27;20233;-81
2022/05/29 10:51:27;;;;;;;10.90;4.27;;;;;;;;;;5130482;27;20191;-81
2022/05/29 10:54:05;;;;;;;8.00;3.83;;;;;;;;;;5122386;27;20215;-81
2022/05/29 10:56:44;;;;;;;6.55;3.97;;;;;;;;;;5129404;27;20198;-81
2022/05/29 10:59:38;;;;;;;8.52;3.55;;;;;;;;;;5134199;27;20186;-81
2022/05/29 11:05:16;;;;;;;9.45;4.15;;;;;;;;;;5134328;27;20667;-81
2022/05/29 11:07:52;;;;;;;4.63;3.50;;;;;;;;;;5123838;27;20195;-81
2022/05/29 11:10:41;;;;;;;4.88;3.25;;;;;;;;;;5119424;27;20245;-81
2022/05/29 11:13:28;;;;;;;7.72;4.45;;;;;;;;;;5118335;27;20240;-81
2022/05/29 11:16:02;;;;;;;6.20;3.80;;;;;;;;;;5134452;27;20616;-81
2022/05/29 11:19:08;;;;;;;9.02;4.22;;;;;;;;;;5133721;27;20186;-81
2022/05/29 11:21:42;;;;;;;5.63;4.43;;;;;;;;;;5100557;28;20264;-81
2022/05/29 11:24:24;;;;;;;8.30;4.10;;;;;;;;;;5113328;28;20265;-81
2022/05/29 11:26:55;;;;;;;7.47;3.80;;;;;;;;;;5131678;27;20627;-81
2022/05/29 11:29:44;;;;;;;6.18;4.45;;;;;;;;;;5129178;27;20199;-81
2022/05/29 11:32:21;;;;;;;8.75;4.38;;;;;;;;;;5099685;28;20239;-81
2022/05/29 11:34:59;;;;;;;8.60;4.30;;;;;;;;;;5110863;28;20267;-81
2022/05/29 11:37:37;;;;;;;7.45;4.18;;;;;;;;;;5121597;27;20198;-81
2022/05/29 11:40:12;;;;;;;7.25;3.92;;;;;;;;;;5126284;27;20240;-81
2022/05/29 11:42:45;;;;;;;7.60;4.82;;;;;;;;;;5111360;28;20243;-81
2022/05/29 11:45:17;;;;;;;9.15;5.03;;;;;;;;;;5112095;28;20180;-81
2022/05/29 11:53:24;;;;;;;9.52;5.53;;;;;;;;;;5119897;27;20203;-81
2022/05/29 11:55:55;;;;;;;6.97;5.32;;;;;;;;;;5128845;27;20210;-82
2022/05/29 11:58:25;;;;;;;12.05;5.38;;;;;;;;;;5132126;27;20179;-82
2022/05/29 12:00:58;;;;;;;11.77;5.18;;;;;;;;;;5128920;27;20255;-81
2022/05/29 12:03:36;;;;;;;8.98;4.85;;;;;;;;;;5123740;27;20200;-81
2022/05/29 12:06:08;;;;;;;6.95;5.35;;;;;;;;;;5128737;27;20202;-81
2022/05/29 12:08:44;;;;;;;8.48;5.65;;;;;;;;;;5131215;27;20195;-81
2022/05/29 12:11:24;;;;;;;10.73;5.13;;;;;;;;;;5132381;27;20183;-81
2022/05/29 12:13:55;;;;;;;7.60;5.55;;;;;;;;;;5128413;27;20220;-81
2022/05/29 12:16:29;;;;;;;8.10;5.47;;;;;;;;;;5132260;27;20611;-81
2022/05/29 12:18:57;;;;;;;12.25;7.03;;;;;;;;;;5118593;27;20621;-81
2022/05/29 12:21:29;;;;;;;9.55;5.60;;;;;;;;;;5127505;27;20259;-81
2022/05/29 12:24:00;;;;;;;8.98;5.93;;;;;;;;;;5131267;27;20647;-81
2022/05/29 12:26:35;;;;;;;7.75;5.05;;;;;;;;;;5114077;27;20419;-82
2022/05/29 12:29:05;;;;;;;7.22;5.40;;;;;;;;;;5125607;28;20731;-81
2022/05/29 12:31:36;;;;;;;8.73;5.57;;;;;;;;;;5118192;28;20198;-81
2022/05/29 12:34:04;;;;;;;13.07;5.17;;;;;;;;;;5131522;27;20215;-81
2022/05/29 12:36:49;;;;;;;11.10;5.60;;;;;;;;;;5131424;27;20202;-81
2022/05/29 12:39:28;;;;;;;8.00;6.47;;;;;;;;;;5131526;28;20190;-81
2022/05/29 12:42:23;;;;;;;11.70;6.00;;;;;;;;;;5131892;27;20647;-80
2022/05/29 12:45:17;;;;;;;9.45;6.35;;;;;;;;;;5131851;27;20247;-81
2022/05/29 12:48:18;;;;;;;10.98;5.63;;;;;;;;;;5135454;27;20215;-81
2022/05/29 12:51:06;;;;;;;9.18;5.78;;;;;;;;;;5135753;27;20202;-81
2022/05/29 12:54:03;;;;;;;12.43;5.70;;;;;;;;;;5135413;27;20719;-81
2022/05/29 12:56:41;;;;;;;9.85;5.00;;;;;;;;;;5135897;27;20206;-80
2022/05/29 12:59:21;;;;;;;9.35;5.68;;;;;;;;;;5135190;27;20291;-81
2022/05/29 13:02:05;;;;;;;10.88;5.30;;;;;;;;;;5135682;27;20183;-80
2022/05/29 13:05:06;;;;;;;7.67;5.33;;;;;;;;;;5135423;27;20179;-81
2022/05/29 13:07:47;;;;;;;10.70;5.53;;;;;;;;;;5135495;27;20245;-81
2022/05/29 13:10:17;;;;;;;9.82;6.53;;;;;;;;;;5136294;27;20222;-81
2022/05/29 13:12:48;;;;;;;15.68;8.00;;;;;;;;;;5114366;27;20243;-81
2022/05/29 13:15:26;;;;;;;18.42;11.77;;;;;;;;;;5115615;28;20203;-80
2022/05/29 13:18:00;;;;;;;14.95;8.77;;;;;;;;;;5115411;28;20188;-80
2022/05/29 13:20:29;;;;;;;18.15;11.48;;;;;;;;;;5116006;27;20207;-81
2022/05/29 13:22:59;;;;;;;25.88;12.40;;;;;;;;;;5115174;28;20664;-80
2022/05/29 13:25:28;;;;;;;16.55;10.60;;;;;;;;;;5115448;28;20720;-80
2022/05/29 13:27:57;;;;;;;15.52;10.80;;;;;;;;;;5115731;27;20584;-81
2022/05/29 13:31:04;;;;;;;13.63;9.05;;;;;;;;;;5115102;28;20195;-81
2022/05/29 13:33:51;;;;;;;31.02;15.80;;;;;;;;;;5115143;28;20662;-81
2022/05/29 13:37:06;;;;;;;21.92;12.98;;;;;;;;;;5114866;28;20287;-81
2022/05/29 13:39:38;;;;;;;9.32;6.63;;;;;;;;;;5114738;28;20194;-80
2022/05/29 13:42:07;;;;;;;9.43;5.68;;;;;;;;;;5115420;28;21032;-81
2022/05/29 13:44:35;;;;;;;7.85;5.85;;;;;;;;;;5114794;28;20249;-80
2022/05/29 13:47:40;;;;;;;9.40;6.28;;;;;;;;;;5115014;28;20195;-80
2022/05/29 13:50:21;;;;;;;6.70;6.10;;;;;;;;;;5111074;27;20195;-81
2022/05/29 13:53:00;;;;;;;6.68;5.63;;;;;;;;;;5121776;27;20263;-81
2022/05/29 13:55:32;;;;;;;6.15;5.55;;;;;;;;;;5135731;27;20206;-81
2022/05/29 14:03:59;;;;;;;22.70;9.18;;;;;;;;;;5135251;27;20566;-81
2022/05/29 14:06:30;;;;;;;11.18;9.05;;;;;;;;;;5135948;27;20175;-80
2022/05/29 14:08:58;;;;;;;9.85;8.57;;;;;;;;;;5135211;27;20183;-81
2022/05/29 14:11:49;;;;;;;10.30;7.72;;;;;;;;;;5135211;27;20191;-81
2022/05/29 14:14:38;;;;;;;14.93;8.63;;;;;;;;;;5135183;27;20662;-81
2022/05/29 14:17:10;;;;;;;13.80;7.85;;;;;;;;;;5122540;27;20211;-81
2022/05/29 14:19:50;;;;;;;12.70;8.35;;;;;;;;;;5114322;28;20211;-81
2022/05/29 14:22:28;;;;;;;10.35;6.65;;;;;;;;;;5114424;28;20213;-81
2022/05/29 14:25:08;;;;;;;9.95;8.20;;;;;;;;;;5115732;27;20199;-81
2022/05/29 14:30:48;;;;;;;10.27;7.78;;;;;;;;;;5130451;27;20585;-80
2022/05/29 14:33:28;;;;;;;10.38;7.40;;;;;;;;;;5115467;27;20739;-81
2022/05/29 14:36:09;;;;;;;14.77;10.70;;;;;;;;;;5121879;27;20210;-81
2022/05/29 14:39:03;;;;;;;13.10;9.70;;;;;;;;;;5114372;28;20264;-81
2022/05/29 14:41:33;;;;;;;8.30;7.43;;;;;;;;;;5125032;27;20199;-81
2022/05/29 14:44:06;;;;;;;10.68;7.88;;;;;;;;;;5127778;27;20659;-81
2022/05/29 14:46:44;;;;;;;11.38;7.30;;;;;;;;;;5126039;27;20312;-80
2022/05/29 14:49:14;;;;;;;11.68;7.80;;;;;;;;;;5126564;27;20194;-81
2022/05/29 14:51:44;;;;;;;9.37;7.83;;;;;;;;;;5116590;27;20252;-81
2022/05/29 14:54:16;;;;;;;10.93;7.43;;;;;;;;;;5113739;28;20203;-81
2022/05/29 14:56:53;;;;;;;9.10;7.17;;;;;;;;;;5116897;27;20268;-80
2022/05/29 14:59:24;;;;;;;9.57;7.53;;;;;;;;;;5112852;27;20219;-80
2022/05/29 15:01:54;;;;;;;8.37;7.50;;;;;;;;;;5117447;27;20736;-81
2022/05/29 15:04:24;;;;;;;9.63;6.83;;;;;;;;;;5128304;27;20203;-81
2022/05/29 15:12:22;;;;;;;8.37;7.13;;;;;;;;;;5127108;27;20233;-81
2022/05/29 15:15:14;;;;;;;8.13;6.50;;;;;;;;;;5120547;27;20227;-80
2022/05/29 15:17:42;;;;;;;7.70;6.97;;;;;;;;;;5109288;27;20666;-81
2022/05/29 15:25:42;;;;;;;8.97;7.23;;;;;;;;;;5129685;27;20351;-80
2022/05/29 15:28:10;;;;;;;7.57;6.67;;;;;;;;;;5126110;27;20227;-80
2022/05/29 15:30:41;;;;;;;9.40;6.60;;;;;;;;;;5131310;27;20203;-80
2022/05/29 15:33:10;;;;;;;8.73;6.90;;;;;;;;;;5125501;27;20748;-80
2022/05/29 15:35:42;;;;;;;11.27;7.37;;;;;;;;;;5126164;27;20283;-81
2022/05/29 15:38:16;;;;;;;13.13;7.27;;;;;;;;;;5117703;27;20741;-80
2022/05/29 15:40:58;;;;;;;9.63;7.30;;;;;;;;;;5114135;27;20606;-81
2022/05/29 15:43:32;;;;;;;9.17;6.77;;;;;;;;;;5133750;27;20306;-81
2022/05/29 15:46:25;;;;;;;7.90;7.27;;;;;;;;;;5119268;27;20701;-80
2022/05/29 15:49:20;;;;;;;10.13;7.60;;;;;;;;;;5120592;27;20191;-80
2022/05/29 15:51:53;;;;;;;10.07;7.30;;;;;;;;;;5119674;27;20282;-81
2022/05/29 15:54:52;;;;;;;8.00;7.20;;;;;;;;;;5092480;28;20249;-81
2022/05/29 15:57:25;;;;;;;14.13;7.17;;;;;;;;;;5092062;28;20176;-81
2022/05/29 16:00:02;;;;;;;8.70;7.43;;;;;;;;;;5120915;27;20190;-81
2022/05/29 16:02:56;;;;;;;11.00;7.10;;;;;;;;;;5123233;27;20203;-80